sensor_id;sensor_type;location;lat;lon;timestamp;P1;durP1;ratioP1;P2;durP2;ratioP2
22476;SDS011;11405;51.698;-0.292;2022-10-22T00:00:34;10.98;;;1.30;;
22476;SDS011;11405;51.698;-0.292;2022-10-22T00:03:00;10.00;;;1.23;;
22476;SDS011;11405;51.698;-0.292;2022-10-22T00:05:26;14.73;;;0.98;;
22476;SDS011;11405;51.698;-0.292;2022-10-22T00:07:52;3.30;;;0.55;;
22476;SDS011;11405;51.698;-0.292;2022-10-22T00:10:18;4.75;;;0.80;;
22476;SDS011;11405;51.698;-0.292;2022-10-22T00:12:44;16.02;;;1.17;;
22476;SDS011;11405;51.698;-0.292;2022-10-22T00:15:10;4.95;;;1.20;;
22476;SDS011;11405;51.698;-0.292;2022-10-22T00:17:36;5.20;;;1.08;;
22476;SDS011;11405;51.698;-0.292;2022-10-22T00:20:02;6.43;;;0.77;;
22476;SDS011;11405;51.698;-0.292;2022-10-22T00:22:28;12.05;;;1.23;;
22476;SDS011;11405;51.698;-0.292;2022-10-22T00:24:54;11.25;;;1.30;;
22476;SDS011;11405;51.698;-0.292;2022-10-22T00:27:20;5.93;;;1.00;;
22476;SDS011;11405;51.698;-0.292;2022-10-22T00:29:46;4.75;;;0.95;;
22476;SDS011;11405;51.698;-0.292;2022-10-22T00:32:13;9.00;;;1.20;;
22476;SDS011;11405;51.698;-0.292;2022-10-22T00:34:39;7.35;;;0.95;;
22476;SDS011;11405;51.698;-0.292;2022-10-22T00:37:05;11.98;;;1.15;;
22476;SDS011;11405;51.698;-0.292;2022-10-22T00:39:31;17.65;;;2.00;;
22476;SDS011;11405;51.698;-0.292;2022-10-22T00:41:58;9.55;;;0.93;;
22476;SDS011;11405;51.698;-0.292;2022-10-22T00:47:09;14.00;;;1.73;;
22476;SDS011;11405;51.698;-0.292;2022-10-22T00:49:35;16.38;;;2.20;;
22476;SDS011;11405;51.698;-0.292;2022-10-22T00:52:01;25.77;;;1.95;;
22476;SDS011;11405;51.698;-0.292;2022-10-22T00:54:27;14.80;;;1.63;;
22476;SDS011;11405;51.698;-0.292;2022-10-22T00:56:53;22.48;;;1.38;;
22476;SDS011;11405;51.698;-0.292;2022-10-22T00:59:19;14.13;;;1.65;;
22476;SDS011;11405;51.698;-0.292;2022-10-22T01:01:45;10.30;;;1.35;;
22476;SDS011;11405;51.698;-0.292;2022-10-22T01:04:11;22.73;;;1.35;;
22476;SDS011;11405;51.698;-0.292;2022-10-22T01:06:37;15.27;;;1.92;;
22476;SDS011;11405;51.698;-0.292;2022-10-22T01:11:35;14.30;;;1.50;;
22476;SDS011;11405;51.698;-0.292;2022-10-22T01:14:08;16.50;;;1.95;;
22476;SDS011;11405;51.698;-0.292;2022-10-22T01:16:51;12.25;;;1.42;;
22476;SDS011;11405;51.698;-0.292;2022-10-22T01:19:24;11.43;;;1.15;;
22476;SDS011;11405;51.698;-0.292;2022-10-22T01:21:55;8.75;;;1.00;;
22476;SDS011;11405;51.698;-0.292;2022-10-22T01:24:38;19.88;;;2.25;;
22476;SDS011;11405;51.698;-0.292;2022-10-22T01:29:52;14.82;;;1.27;;
22476;SDS011;11405;51.698;-0.292;2022-10-22T01:32:21;14.80;;;1.52;;
22476;SDS011;11405;51.698;-0.292;2022-10-22T01:35:09;17.95;;;1.77;;
22476;SDS011;11405;51.698;-0.292;2022-10-22T01:37:36;17.38;;;1.50;;
22476;SDS011;11405;51.698;-0.292;2022-10-22T01:40:03;14.13;;;1.38;;
22476;SDS011;11405;51.698;-0.292;2022-10-22T01:44:56;19.50;;;1.60;;
22476;SDS011;11405;51.698;-0.292;2022-10-22T01:55:27;17.70;;;1.90;;
22476;SDS011;11405;51.698;-0.292;2022-10-22T01:58:01;26.65;;;1.50;;
22476;SDS011;11405;51.698;-0.292;2022-10-22T02:00:29;15.27;;;1.63;;
22476;SDS011;11405;51.698;-0.292;2022-10-22T02:02:57;11.57;;;1.67;;
22476;SDS011;11405;51.698;-0.292;2022-10-22T02:07:57;11.43;;;1.33;;
22476;SDS011;11405;51.698;-0.292;2022-10-22T02:10:24;18.50;;;1.70;;
22476;SDS011;11405;51.698;-0.292;2022-10-22T02:12:51;18.75;;;1.55;;
22476;SDS011;11405;51.698;-0.292;2022-10-22T02:15:18;13.98;;;1.50;;
22476;SDS011;11405;51.698;-0.292;2022-10-22T02:20:32;15.45;;;1.75;;
22476;SDS011;11405;51.698;-0.292;2022-10-22T02:22:57;21.55;;;1.73;;
22476;SDS011;11405;51.698;-0.292;2022-10-22T02:25:25;11.10;;;1.20;;
22476;SDS011;11405;51.698;-0.292;2022-10-22T02:30:21;0.00;;;0.00;;
22476;SDS011;11405;51.698;-0.292;2022-10-22T02:35:32;0.00;;;0.00;;
22476;SDS011;11405;51.698;-0.292;2022-10-22T02:37:58;0.00;;;0.00;;
22476;SDS011;11405;51.698;-0.292;2022-10-22T02:40:25;0.00;;;0.00;;
22476;SDS011;11405;51.698;-0.292;2022-10-22T02:42:52;0.00;;;0.00;;
22476;SDS011;11405;51.698;-0.292;2022-10-22T02:45:18;0.00;;;0.00;;
22476;SDS011;11405;51.698;-0.292;2022-10-22T02:47:45;0.00;;;0.00;;
22476;SDS011;11405;51.698;-0.292;2022-10-22T02:50:11;0.00;;;0.00;;
22476;SDS011;11405;51.698;-0.292;2022-10-22T02:52:37;0.00;;;0.00;;
22476;SDS011;11405;51.698;-0.292;2022-10-22T02:55:03;0.00;;;0.00;;
22476;SDS011;11405;51.698;-0.292;2022-10-22T02:57:30;0.00;;;0.00;;
22476;SDS011;11405;51.698;-0.292;2022-10-22T02:59:56;0.00;;;0.00;;
22476;SDS011;11405;51.698;-0.292;2022-10-22T03:02:22;0.00;;;0.00;;
22476;SDS011;11405;51.698;-0.292;2022-10-22T03:04:48;0.00;;;0.00;;
22476;SDS011;11405;51.698;-0.292;2022-10-22T03:07:14;0.00;;;0.00;;
22476;SDS011;11405;51.698;-0.292;2022-10-22T03:09:40;0.00;;;0.00;;
22476;SDS011;11405;51.698;-0.292;2022-10-22T03:12:06;0.00;;;0.00;;
22476;SDS011;11405;51.698;-0.292;2022-10-22T03:14:32;0.00;;;0.00;;
22476;SDS011;11405;51.698;-0.292;2022-10-22T03:16:58;0.00;;;0.00;;
22476;SDS011;11405;51.698;-0.292;2022-10-22T03:19:24;0.00;;;0.00;;
22476;SDS011;11405;51.698;-0.292;2022-10-22T03:21:52;0.00;;;0.00;;
22476;SDS011;11405;51.698;-0.292;2022-10-22T03:24:21;0.00;;;0.00;;
22476;SDS011;11405;51.698;-0.292;2022-10-22T03:26:49;0.00;;;0.00;;
22476;SDS011;11405;51.698;-0.292;2022-10-22T03:29:16;0.00;;;0.00;;
22476;SDS011;11405;51.698;-0.292;2022-10-22T03:31:42;0.00;;;0.00;;
22476;SDS011;11405;51.698;-0.292;2022-10-22T03:34:08;0.00;;;0.00;;
22476;SDS011;11405;51.698;-0.292;2022-10-22T03:36:35;0.00;;;0.00;;
22476;SDS011;11405;51.698;-0.292;2022-10-22T03:39:02;0.00;;;0.00;;
22476;SDS011;11405;51.698;-0.292;2022-10-22T03:41:29;0.00;;;0.00;;
22476;SDS011;11405;51.698;-0.292;2022-10-22T03:43:55;0.00;;;0.00;;
22476;SDS011;11405;51.698;-0.292;2022-10-22T03:46:21;0.00;;;0.00;;
22476;SDS011;11405;51.698;-0.292;2022-10-22T03:48:47;0.00;;;0.00;;
22476;SDS011;11405;51.698;-0.292;2022-10-22T03:51:13;0.00;;;0.00;;
22476;SDS011;11405;51.698;-0.292;2022-10-22T03:53:39;0.00;;;0.00;;
22476;SDS011;11405;51.698;-0.292;2022-10-22T03:56:09;0.00;;;0.00;;
22476;SDS011;11405;51.698;-0.292;2022-10-22T03:58:36;0.00;;;0.00;;
22476;SDS011;11405;51.698;-0.292;2022-10-22T04:01:09;0.00;;;0.00;;
22476;SDS011;11405;51.698;-0.292;2022-10-22T04:03:35;0.00;;;0.00;;
22476;SDS011;11405;51.698;-0.292;2022-10-22T04:06:06;0.00;;;0.00;;
22476;SDS011;11405;51.698;-0.292;2022-10-22T04:08:32;0.00;;;0.00;;
22476;SDS011;11405;51.698;-0.292;2022-10-22T04:10:58;0.00;;;0.00;;
22476;SDS011;11405;51.698;-0.292;2022-10-22T04:13:24;0.00;;;0.00;;
22476;SDS011;11405;51.698;-0.292;2022-10-22T04:15:50;0.38;;;0.38;;
22476;SDS011;11405;51.698;-0.292;2022-10-22T04:18:20;0.00;;;0.00;;
22476;SDS011;11405;51.698;-0.292;2022-10-22T04:20:46;0.00;;;0.00;;
22476;SDS011;11405;51.698;-0.292;2022-10-22T04:23:12;0.00;;;0.00;;
22476;SDS011;11405;51.698;-0.292;2022-10-22T04:25:39;0.00;;;0.00;;
22476;SDS011;11405;51.698;-0.292;2022-10-22T04:28:06;0.00;;;0.00;;
22476;SDS011;11405;51.698;-0.292;2022-10-22T04:30:32;0.00;;;0.00;;
22476;SDS011;11405;51.698;-0.292;2022-10-22T04:32:58;0.00;;;0.00;;
22476;SDS011;11405;51.698;-0.292;2022-10-22T04:35:24;0.00;;;0.00;;
22476;SDS011;11405;51.698;-0.292;2022-10-22T04:37:50;0.00;;;0.00;;
22476;SDS011;11405;51.698;-0.292;2022-10-22T04:40:16;0.00;;;0.00;;
22476;SDS011;11405;51.698;-0.292;2022-10-22T04:42:42;0.00;;;0.00;;
22476;SDS011;11405;51.698;-0.292;2022-10-22T04:45:08;0.00;;;0.00;;
22476;SDS011;11405;51.698;-0.292;2022-10-22T04:47:34;0.00;;;0.00;;
22476;SDS011;11405;51.698;-0.292;2022-10-22T04:50:00;0.00;;;0.00;;
22476;SDS011;11405;51.698;-0.292;2022-10-22T04:52:26;0.00;;;0.00;;
22476;SDS011;11405;51.698;-0.292;2022-10-22T04:54:52;0.00;;;0.00;;
22476;SDS011;11405;51.698;-0.292;2022-10-22T04:57:18;0.00;;;0.00;;
22476;SDS011;11405;51.698;-0.292;2022-10-22T04:59:44;0.00;;;0.00;;
22476;SDS011;11405;51.698;-0.292;2022-10-22T05:02:10;0.00;;;0.00;;
22476;SDS011;11405;51.698;-0.292;2022-10-22T05:04:36;0.00;;;0.00;;
22476;SDS011;11405;51.698;-0.292;2022-10-22T05:07:02;0.00;;;0.00;;
22476;SDS011;11405;51.698;-0.292;2022-10-22T05:09:28;0.00;;;0.00;;
22476;SDS011;11405;51.698;-0.292;2022-10-22T05:11:54;0.00;;;0.00;;
22476;SDS011;11405;51.698;-0.292;2022-10-22T05:14:23;0.00;;;0.00;;
22476;SDS011;11405;51.698;-0.292;2022-10-22T05:16:50;0.00;;;0.00;;
22476;SDS011;11405;51.698;-0.292;2022-10-22T05:19:18;0.00;;;0.00;;
22476;SDS011;11405;51.698;-0.292;2022-10-22T05:21:44;0.00;;;0.00;;
22476;SDS011;11405;51.698;-0.292;2022-10-22T05:24:10;0.00;;;0.00;;
22476;SDS011;11405;51.698;-0.292;2022-10-22T05:26:36;0.00;;;0.00;;
22476;SDS011;11405;51.698;-0.292;2022-10-22T05:29:02;0.00;;;0.00;;
22476;SDS011;11405;51.698;-0.292;2022-10-22T05:31:28;0.00;;;0.00;;
22476;SDS011;11405;51.698;-0.292;2022-10-22T05:33:54;0.00;;;0.00;;
22476;SDS011;11405;51.698;-0.292;2022-10-22T05:36:20;0.00;;;0.00;;
22476;SDS011;11405;51.698;-0.292;2022-10-22T05:38:47;0.00;;;0.00;;
22476;SDS011;11405;51.698;-0.292;2022-10-22T05:41:14;0.00;;;0.00;;
22476;SDS011;11405;51.698;-0.292;2022-10-22T05:43:41;0.00;;;0.00;;
22476;SDS011;11405;51.698;-0.292;2022-10-22T05:46:11;0.00;;;0.00;;
22476;SDS011;11405;51.698;-0.292;2022-10-22T05:48:38;0.00;;;0.00;;
22476;SDS011;11405;51.698;-0.292;2022-10-22T05:51:10;0.00;;;0.00;;
22476;SDS011;11405;51.698;-0.292;2022-10-22T05:53:38;2.10;;;0.15;;
22476;SDS011;11405;51.698;-0.292;2022-10-22T05:56:05;5.47;;;1.05;;
22476;SDS011;11405;51.698;-0.292;2022-10-22T05:58:31;4.55;;;0.95;;
22476;SDS011;11405;51.698;-0.292;2022-10-22T06:01:05;10.13;;;1.02;;
22476;SDS011;11405;51.698;-0.292;2022-10-22T06:03:31;8.80;;;1.42;;
22476;SDS011;11405;51.698;-0.292;2022-10-22T06:06:00;5.25;;;0.73;;
22476;SDS011;11405;51.698;-0.292;2022-10-22T06:08:27;5.15;;;0.88;;
22476;SDS011;11405;51.698;-0.292;2022-10-22T06:10:54;9.10;;;0.75;;
22476;SDS011;11405;51.698;-0.292;2022-10-22T06:13:20;6.57;;;0.93;;
22476;SDS011;11405;51.698;-0.292;2022-10-22T06:15:47;10.80;;;1.30;;
22476;SDS011;11405;51.698;-0.292;2022-10-22T06:18:13;6.22;;;1.17;;
22476;SDS011;11405;51.698;-0.292;2022-10-22T06:20:39;12.07;;;1.25;;
22476;SDS011;11405;51.698;-0.292;2022-10-22T06:23:07;10.73;;;0.70;;
22476;SDS011;11405;51.698;-0.292;2022-10-22T06:25:33;7.75;;;0.80;;
22476;SDS011;11405;51.698;-0.292;2022-10-22T06:27:59;8.02;;;0.85;;
22476;SDS011;11405;51.698;-0.292;2022-10-22T06:30:25;6.45;;;1.38;;
22476;SDS011;11405;51.698;-0.292;2022-10-22T06:32:51;19.23;;;1.48;;
22476;SDS011;11405;51.698;-0.292;2022-10-22T06:35:17;10.13;;;0.93;;
22476;SDS011;11405;51.698;-0.292;2022-10-22T06:37:43;9.57;;;1.30;;
22476;SDS011;11405;51.698;-0.292;2022-10-22T06:40:09;15.38;;;1.88;;
22476;SDS011;11405;51.698;-0.292;2022-10-22T06:42:35;14.45;;;1.00;;
22476;SDS011;11405;51.698;-0.292;2022-10-22T06:45:01;12.25;;;1.27;;
22476;SDS011;11405;51.698;-0.292;2022-10-22T06:47:27;10.00;;;1.27;;
22476;SDS011;11405;51.698;-0.292;2022-10-22T06:49:55;10.10;;;1.33;;
22476;SDS011;11405;51.698;-0.292;2022-10-22T06:52:21;10.98;;;1.48;;
22476;SDS011;11405;51.698;-0.292;2022-10-22T06:54:47;11.60;;;1.92;;
22476;SDS011;11405;51.698;-0.292;2022-10-22T06:57:13;9.38;;;1.20;;
22476;SDS011;11405;51.698;-0.292;2022-10-22T06:59:39;13.43;;;1.60;;
22476;SDS011;11405;51.698;-0.292;2022-10-22T07:02:05;12.57;;;1.30;;
22476;SDS011;11405;51.698;-0.292;2022-10-22T07:04:31;10.40;;;1.77;;
22476;SDS011;11405;51.698;-0.292;2022-10-22T07:06:57;8.65;;;1.45;;
22476;SDS011;11405;51.698;-0.292;2022-10-22T07:09:23;10.35;;;1.15;;
22476;SDS011;11405;51.698;-0.292;2022-10-22T07:11:49;14.32;;;2.10;;
22476;SDS011;11405;51.698;-0.292;2022-10-22T07:14:15;15.77;;;1.70;;
22476;SDS011;11405;51.698;-0.292;2022-10-22T07:16:41;9.75;;;1.55;;
22476;SDS011;11405;51.698;-0.292;2022-10-22T07:19:09;18.52;;;1.80;;
22476;SDS011;11405;51.698;-0.292;2022-10-22T07:21:35;7.93;;;1.65;;
22476;SDS011;11405;51.698;-0.292;2022-10-22T07:24:01;17.27;;;1.92;;
22476;SDS011;11405;51.698;-0.292;2022-10-22T07:26:27;15.25;;;1.27;;
22476;SDS011;11405;51.698;-0.292;2022-10-22T07:29:00;14.48;;;1.63;;
22476;SDS011;11405;51.698;-0.292;2022-10-22T07:31:26;11.18;;;1.40;;
22476;SDS011;11405;51.698;-0.292;2022-10-22T07:33:52;15.30;;;1.55;;
22476;SDS011;11405;51.698;-0.292;2022-10-22T07:36:18;23.90;;;2.15;;
22476;SDS011;11405;51.698;-0.292;2022-10-22T07:38:45;11.60;;;2.00;;
22476;SDS011;11405;51.698;-0.292;2022-10-22T07:43:37;15.65;;;2.30;;
22476;SDS011;11405;51.698;-0.292;2022-10-22T07:46:03;19.63;;;1.83;;
22476;SDS011;11405;51.698;-0.292;2022-10-22T07:48:29;14.98;;;1.73;;
22476;SDS011;11405;51.698;-0.292;2022-10-22T07:50:55;27.35;;;3.05;;
22476;SDS011;11405;51.698;-0.292;2022-10-22T07:53:22;11.77;;;2.28;;
22476;SDS011;11405;51.698;-0.292;2022-10-22T07:55:51;17.42;;;1.80;;
22476;SDS011;11405;51.698;-0.292;2022-10-22T07:58:18;15.05;;;1.67;;
22476;SDS011;11405;51.698;-0.292;2022-10-22T08:00:44;21.55;;;1.95;;
22476;SDS011;11405;51.698;-0.292;2022-10-22T08:03:11;12.35;;;1.45;;
22476;SDS011;11405;51.698;-0.292;2022-10-22T08:05:37;13.50;;;1.83;;
22476;SDS011;11405;51.698;-0.292;2022-10-22T08:08:04;11.15;;;1.42;;
22476;SDS011;11405;51.698;-0.292;2022-10-22T08:10:30;5.50;;;0.90;;
22476;SDS011;11405;51.698;-0.292;2022-10-22T08:12:56;11.85;;;2.38;;
22476;SDS011;11405;51.698;-0.292;2022-10-22T08:15:22;12.73;;;1.40;;
22476;SDS011;11405;51.698;-0.292;2022-10-22T08:17:49;14.10;;;1.60;;
22476;SDS011;11405;51.698;-0.292;2022-10-22T08:20:15;15.90;;;1.45;;
22476;SDS011;11405;51.698;-0.292;2022-10-22T08:22:42;18.33;;;1.67;;
22476;SDS011;11405;51.698;-0.292;2022-10-22T08:25:08;11.05;;;1.45;;
22476;SDS011;11405;51.698;-0.292;2022-10-22T08:27:34;17.17;;;1.73;;
22476;SDS011;11405;51.698;-0.292;2022-10-22T08:30:00;13.85;;;1.90;;
22476;SDS011;11405;51.698;-0.292;2022-10-22T08:32:26;9.93;;;1.40;;
22476;SDS011;11405;51.698;-0.292;2022-10-22T08:34:52;17.42;;;2.78;;
22476;SDS011;11405;51.698;-0.292;2022-10-22T08:37:18;21.67;;;1.80;;
22476;SDS011;11405;51.698;-0.292;2022-10-22T08:39:44;11.63;;;1.27;;
22476;SDS011;11405;51.698;-0.292;2022-10-22T08:44:58;10.00;;;2.03;;
22476;SDS011;11405;51.698;-0.292;2022-10-22T08:47:38;20.33;;;1.73;;
22476;SDS011;11405;51.698;-0.292;2022-10-22T08:50:08;17.45;;;1.83;;
22476;SDS011;11405;51.698;-0.292;2022-10-22T08:52:36;16.20;;;2.55;;
22476;SDS011;11405;51.698;-0.292;2022-10-22T08:55:07;14.30;;;1.98;;
22476;SDS011;11405;51.698;-0.292;2022-10-22T09:08:14;13.60;;;2.00;;
22476;SDS011;11405;51.698;-0.292;2022-10-22T09:10:45;5.80;;;1.27;;
22476;SDS011;11405;51.698;-0.292;2022-10-22T09:13:13;13.32;;;1.55;;
22476;SDS011;11405;51.698;-0.292;2022-10-22T09:15:40;9.23;;;1.42;;
22476;SDS011;11405;51.698;-0.292;2022-10-22T09:18:18;14.00;;;2.00;;
22476;SDS011;11405;51.698;-0.292;2022-10-22T09:20:48;12.48;;;1.70;;
22476;SDS011;11405;51.698;-0.292;2022-10-22T09:23:20;12.25;;;1.90;;
22476;SDS011;11405;51.698;-0.292;2022-10-22T09:25:47;11.73;;;1.50;;
22476;SDS011;11405;51.698;-0.292;2022-10-22T09:30:39;9.73;;;1.50;;
22476;SDS011;11405;51.698;-0.292;2022-10-22T09:33:10;11.43;;;2.20;;
22476;SDS011;11405;51.698;-0.292;2022-10-22T09:35:47;14.48;;;1.80;;
22476;SDS011;11405;51.698;-0.292;2022-10-22T09:38:17;15.93;;;1.88;;
22476;SDS011;11405;51.698;-0.292;2022-10-22T09:40:48;12.43;;;1.70;;
22476;SDS011;11405;51.698;-0.292;2022-10-22T09:43:15;7.32;;;1.65;;
22476;SDS011;11405;51.698;-0.292;2022-10-22T09:45:42;20.20;;;2.05;;
22476;SDS011;11405;51.698;-0.292;2022-10-22T09:50:40;9.13;;;1.10;;
22476;SDS011;11405;51.698;-0.292;2022-10-22T09:55:37;12.48;;;1.55;;
22476;SDS011;11405;51.698;-0.292;2022-10-22T09:58:03;9.63;;;1.63;;
22476;SDS011;11405;51.698;-0.292;2022-10-22T10:00:29;18.65;;;1.25;;
22476;SDS011;11405;51.698;-0.292;2022-10-22T10:02:56;17.73;;;2.20;;
22476;SDS011;11405;51.698;-0.292;2022-10-22T10:05:29;11.90;;;1.88;;
22476;SDS011;11405;51.698;-0.292;2022-10-22T10:07:56;22.52;;;1.70;;
22476;SDS011;11405;51.698;-0.292;2022-10-22T10:10:28;10.85;;;1.45;;
22476;SDS011;11405;51.698;-0.292;2022-10-22T10:13:02;11.18;;;1.80;;
22476;SDS011;11405;51.698;-0.292;2022-10-22T10:31:20;7.65;;;1.38;;
22476;SDS011;11405;51.698;-0.292;2022-10-22T10:46:39;15.95;;;1.38;;
22476;SDS011;11405;51.698;-0.292;2022-10-22T10:49:10;12.55;;;1.42;;
22476;SDS011;11405;51.698;-0.292;2022-10-22T10:51:44;10.57;;;1.42;;
22476;SDS011;11405;51.698;-0.292;2022-10-22T10:56:47;8.13;;;1.15;;
22476;SDS011;11405;51.698;-0.292;2022-10-22T11:04:19;7.47;;;1.43;;
22476;SDS011;11405;51.698;-0.292;2022-10-22T11:06:49;11.43;;;2.00;;
22476;SDS011;11405;51.698;-0.292;2022-10-22T11:11:47;17.58;;;1.67;;
22476;SDS011;11405;51.698;-0.292;2022-10-22T11:16:52;13.45;;;1.50;;
22476;SDS011;11405;51.698;-0.292;2022-10-22T11:19:28;9.60;;;1.38;;
22476;SDS011;11405;51.698;-0.292;2022-10-22T11:22:02;12.55;;;1.58;;
22476;SDS011;11405;51.698;-0.292;2022-10-22T11:29:50;14.52;;;2.22;;
22476;SDS011;11405;51.698;-0.292;2022-10-22T11:32:18;14.07;;;2.17;;
22476;SDS011;11405;51.698;-0.292;2022-10-22T11:37:10;8.60;;;1.30;;
22476;SDS011;11405;51.698;-0.292;2022-10-22T11:39:54;14.73;;;1.15;;
22476;SDS011;11405;51.698;-0.292;2022-10-22T11:42:37;6.65;;;1.10;;
22476;SDS011;11405;51.698;-0.292;2022-10-22T11:45:05;10.82;;;1.75;;
22476;SDS011;11405;51.698;-0.292;2022-10-22T11:47:50;11.80;;;2.30;;
22476;SDS011;11405;51.698;-0.292;2022-10-22T11:52:48;10.90;;;1.15;;
22476;SDS011;11405;51.698;-0.292;2022-10-22T11:58:01;14.90;;;1.90;;
22476;SDS011;11405;51.698;-0.292;2022-10-22T12:00:48;10.05;;;1.33;;
22476;SDS011;11405;51.698;-0.292;2022-10-22T12:03:18;15.27;;;1.52;;
22476;SDS011;11405;51.698;-0.292;2022-10-22T12:24:29;8.70;;;1.15;;
22476;SDS011;11405;51.698;-0.292;2022-10-22T12:26:56;7.65;;;1.15;;
22476;SDS011;11405;51.698;-0.292;2022-10-22T12:29:22;13.10;;;1.98;;
22476;SDS011;11405;51.698;-0.292;2022-10-22T12:31:50;9.23;;;1.05;;
22476;SDS011;11405;51.698;-0.292;2022-10-22T12:34:23;8.23;;;1.23;;
22476;SDS011;11405;51.698;-0.292;2022-10-22T12:36:50;12.38;;;2.00;;
22476;SDS011;11405;51.698;-0.292;2022-10-22T12:39:17;7.20;;;1.17;;
22476;SDS011;11405;51.698;-0.292;2022-10-22T12:41:43;8.95;;;1.30;;
22476;SDS011;11405;51.698;-0.292;2022-10-22T12:44:13;15.02;;;1.80;;
22476;SDS011;11405;51.698;-0.292;2022-10-22T12:46:40;11.75;;;1.20;;
22476;SDS011;11405;51.698;-0.292;2022-10-22T12:49:16;12.40;;;1.83;;
22476;SDS011;11405;51.698;-0.292;2022-10-22T12:51:43;9.32;;;1.20;;
22476;SDS011;11405;51.698;-0.292;2022-10-22T12:54:21;7.00;;;1.55;;
22476;SDS011;11405;51.698;-0.292;2022-10-22T12:56:48;12.15;;;1.40;;
22476;SDS011;11405;51.698;-0.292;2022-10-22T13:01:47;6.40;;;0.98;;
22476;SDS011;11405;51.698;-0.292;2022-10-22T13:06:42;8.82;;;1.30;;
22476;SDS011;11405;51.698;-0.292;2022-10-22T13:09:18;6.68;;;1.45;;
22476;SDS011;11405;51.698;-0.292;2022-10-22T13:14:44;11.27;;;1.30;;
22476;SDS011;11405;51.698;-0.292;2022-10-22T13:22:02;9.95;;;1.67;;
22476;SDS011;11405;51.698;-0.292;2022-10-22T13:24:28;17.30;;;1.17;;
22476;SDS011;11405;51.698;-0.292;2022-10-22T13:26:55;9.02;;;1.20;;
22476;SDS011;11405;51.698;-0.292;2022-10-22T13:29:21;13.38;;;1.55;;
22476;SDS011;11405;51.698;-0.292;2022-10-22T13:31:51;10.20;;;1.70;;
22476;SDS011;11405;51.698;-0.292;2022-10-22T13:34:18;12.68;;;1.08;;
22476;SDS011;11405;51.698;-0.292;2022-10-22T13:36:45;6.28;;;1.48;;
22476;SDS011;11405;51.698;-0.292;2022-10-22T13:39:18;6.85;;;1.65;;
22476;SDS011;11405;51.698;-0.292;2022-10-22T13:41:44;6.53;;;1.75;;
22476;SDS011;11405;51.698;-0.292;2022-10-22T13:44:10;10.82;;;1.42;;
22476;SDS011;11405;51.698;-0.292;2022-10-22T13:46:36;6.07;;;1.02;;
22476;SDS011;11405;51.698;-0.292;2022-10-22T13:49:06;12.60;;;2.35;;
22476;SDS011;11405;51.698;-0.292;2022-10-22T13:51:37;7.18;;;1.35;;
22476;SDS011;11405;51.698;-0.292;2022-10-22T13:54:03;7.40;;;2.13;;
22476;SDS011;11405;51.698;-0.292;2022-10-22T13:56:31;5.07;;;0.82;;
22476;SDS011;11405;51.698;-0.292;2022-10-22T13:58:57;9.07;;;1.27;;
22476;SDS011;11405;51.698;-0.292;2022-10-22T14:01:24;9.32;;;1.40;;
22476;SDS011;11405;51.698;-0.292;2022-10-22T14:03:52;6.25;;;1.50;;
22476;SDS011;11405;51.698;-0.292;2022-10-22T14:06:19;7.38;;;1.48;;
22476;SDS011;11405;51.698;-0.292;2022-10-22T14:08:46;8.38;;;1.45;;
22476;SDS011;11405;51.698;-0.292;2022-10-22T14:11:14;8.85;;;1.08;;
22476;SDS011;11405;51.698;-0.292;2022-10-22T14:13:40;8.48;;;0.98;;
22476;SDS011;11405;51.698;-0.292;2022-10-22T14:16:10;9.65;;;1.55;;
22476;SDS011;11405;51.698;-0.292;2022-10-22T14:18:39;6.63;;;1.20;;
22476;SDS011;11405;51.698;-0.292;2022-10-22T14:21:05;6.95;;;0.90;;
22476;SDS011;11405;51.698;-0.292;2022-10-22T14:23:32;5.18;;;0.90;;
22476;SDS011;11405;51.698;-0.292;2022-10-22T14:26:00;5.75;;;1.40;;
22476;SDS011;11405;51.698;-0.292;2022-10-22T14:28:26;9.63;;;0.80;;
22476;SDS011;11405;51.698;-0.292;2022-10-22T14:30:52;7.30;;;1.13;;
22476;SDS011;11405;51.698;-0.292;2022-10-22T14:33:20;7.30;;;1.35;;
22476;SDS011;11405;51.698;-0.292;2022-10-22T14:35:47;8.02;;;1.15;;
22476;SDS011;11405;51.698;-0.292;2022-10-22T14:38:13;6.90;;;1.05;;
22476;SDS011;11405;51.698;-0.292;2022-10-22T14:40:40;7.28;;;1.00;;
22476;SDS011;11405;51.698;-0.292;2022-10-22T14:43:18;7.82;;;1.10;;
22476;SDS011;11405;51.698;-0.292;2022-10-22T14:45:45;5.30;;;1.00;;
22476;SDS011;11405;51.698;-0.292;2022-10-22T14:48:11;7.25;;;1.05;;
22476;SDS011;11405;51.698;-0.292;2022-10-22T14:50:37;9.18;;;1.38;;
22476;SDS011;11405;51.698;-0.292;2022-10-22T14:53:03;5.75;;;1.08;;
22476;SDS011;11405;51.698;-0.292;2022-10-22T14:55:29;9.57;;;1.60;;
22476;SDS011;11405;51.698;-0.292;2022-10-22T14:57:55;4.75;;;0.77;;
22476;SDS011;11405;51.698;-0.292;2022-10-22T15:00:21;5.30;;;0.82;;
22476;SDS011;11405;51.698;-0.292;2022-10-22T15:02:47;7.32;;;1.15;;
22476;SDS011;11405;51.698;-0.292;2022-10-22T15:05:14;6.57;;;1.20;;
22476;SDS011;11405;51.698;-0.292;2022-10-22T15:07:41;7.07;;;0.90;;
22476;SDS011;11405;51.698;-0.292;2022-10-22T15:10:07;6.13;;;1.48;;
22476;SDS011;11405;51.698;-0.292;2022-10-22T15:12:34;8.02;;;0.95;;
22476;SDS011;11405;51.698;-0.292;2022-10-22T15:15:00;6.10;;;0.85;;
22476;SDS011;11405;51.698;-0.292;2022-10-22T15:17:26;4.28;;;0.80;;
22476;SDS011;11405;51.698;-0.292;2022-10-22T15:19:52;4.93;;;1.10;;
22476;SDS011;11405;51.698;-0.292;2022-10-22T15:22:20;11.45;;;0.90;;
22476;SDS011;11405;51.698;-0.292;2022-10-22T15:24:46;6.28;;;1.52;;
22476;SDS011;11405;51.698;-0.292;2022-10-22T15:27:13;8.50;;;1.20;;
22476;SDS011;11405;51.698;-0.292;2022-10-22T15:29:40;9.88;;;0.90;;
22476;SDS011;11405;51.698;-0.292;2022-10-22T15:32:06;4.15;;;0.75;;
22476;SDS011;11405;51.698;-0.292;2022-10-22T15:34:34;6.57;;;1.00;;
22476;SDS011;11405;51.698;-0.292;2022-10-22T15:37:01;9.90;;;1.17;;
22476;SDS011;11405;51.698;-0.292;2022-10-22T15:39:28;11.15;;;1.30;;
22476;SDS011;11405;51.698;-0.292;2022-10-22T15:41:54;13.25;;;0.80;;
22476;SDS011;11405;51.698;-0.292;2022-10-22T15:44:21;8.07;;;1.48;;
22476;SDS011;11405;51.698;-0.292;2022-10-22T15:46:48;6.32;;;1.60;;
22476;SDS011;11405;51.698;-0.292;2022-10-22T15:49:21;11.95;;;1.48;;
22476;SDS011;11405;51.698;-0.292;2022-10-22T15:54:14;8.88;;;1.25;;
22476;SDS011;11405;51.698;-0.292;2022-10-22T15:56:40;8.52;;;1.17;;
22476;SDS011;11405;51.698;-0.292;2022-10-22T15:59:06;7.97;;;1.40;;
22476;SDS011;11405;51.698;-0.292;2022-10-22T16:01:33;6.78;;;1.63;;
22476;SDS011;11405;51.698;-0.292;2022-10-22T16:03:59;12.23;;;1.25;;
22476;SDS011;11405;51.698;-0.292;2022-10-22T16:06:30;10.10;;;2.13;;
22476;SDS011;11405;51.698;-0.292;2022-10-22T16:08:57;7.40;;;1.77;;
22476;SDS011;11405;51.698;-0.292;2022-10-22T16:11:24;9.25;;;1.50;;
22476;SDS011;11405;51.698;-0.292;2022-10-22T16:13:54;12.25;;;1.33;;
22476;SDS011;11405;51.698;-0.292;2022-10-22T16:16:21;7.32;;;1.35;;
22476;SDS011;11405;51.698;-0.292;2022-10-22T16:18:47;7.20;;;2.13;;
22476;SDS011;11405;51.698;-0.292;2022-10-22T16:21:13;8.35;;;1.25;;
22476;SDS011;11405;51.698;-0.292;2022-10-22T16:23:40;8.18;;;1.50;;
22476;SDS011;11405;51.698;-0.292;2022-10-22T16:26:06;8.95;;;1.40;;
22476;SDS011;11405;51.698;-0.292;2022-10-22T16:28:32;22.17;;;1.73;;
22476;SDS011;11405;51.698;-0.292;2022-10-22T16:31:02;6.20;;;1.20;;
22476;SDS011;11405;51.698;-0.292;2022-10-22T16:33:28;12.43;;;1.60;;
22476;SDS011;11405;51.698;-0.292;2022-10-22T16:35:54;6.75;;;1.50;;
22476;SDS011;11405;51.698;-0.292;2022-10-22T16:38:21;9.38;;;1.60;;
22476;SDS011;11405;51.698;-0.292;2022-10-22T16:40:47;7.22;;;1.50;;
22476;SDS011;11405;51.698;-0.292;2022-10-22T16:43:14;8.93;;;1.52;;
22476;SDS011;11405;51.698;-0.292;2022-10-22T16:45:49;14.00;;;1.33;;
22476;SDS011;11405;51.698;-0.292;2022-10-22T16:48:16;8.55;;;1.48;;
22476;SDS011;11405;51.698;-0.292;2022-10-22T16:53:08;7.45;;;1.55;;